createdAt,value
2019-05-20T00:02:25.827Z,1.80
2019-05-20T00:04:48.986Z,2.43
2019-05-20T00:07:17.289Z,2.10
2019-05-20T00:09:46.124Z,1.80
2019-05-20T00:12:14.894Z,2.23
2019-05-20T00:14:43.349Z,2.20
2019-05-20T00:17:11.566Z,1.73
2019-05-20T00:19:41.124Z,1.70
2019-05-20T00:22:09.637Z,2.37
2019-05-20T00:24:38.214Z,2.07
2019-05-20T00:27:06.549Z,1.83
2019-05-20T00:29:34.887Z,1.80
2019-05-20T00:32:03.709Z,1.60
2019-05-20T00:34:34.991Z,1.80
2019-05-20T00:37:02.838Z,1.70
2019-05-20T00:39:31.609Z,2.07
2019-05-20T00:41:59.863Z,1.83
2019-05-20T00:44:28.275Z,1.70
2019-05-20T00:46:56.473Z,2.30
2019-05-20T00:49:25.739Z,2.00
2019-05-20T00:51:54.382Z,2.27
2019-05-20T00:54:22.589Z,2.13
2019-05-20T00:56:51.617Z,1.90
2019-05-20T00:59:20.145Z,1.83
2019-05-20T01:01:48.683Z,1.50
2019-05-20T01:04:18.777Z,2.00
2019-05-20T01:06:47.462Z,2.10
2019-05-20T01:09:16.030Z,2.03
2019-05-20T01:11:44.678Z,1.97
2019-05-20T01:14:13.465Z,2.30
2019-05-20T01:16:42.205Z,1.70
2019-05-20T01:19:10.892Z,1.60
2019-05-20T01:21:39.547Z,1.80
2019-05-20T01:24:08.287Z,1.97
2019-05-20T01:26:37.261Z,1.87
2019-05-20T01:29:05.873Z,2.00
2019-05-20T01:31:34.628Z,1.80
2019-05-20T01:34:03.206Z,1.93
2019-05-20T01:36:31.946Z,1.80
2019-05-20T01:39:00.937Z,1.87
2019-05-20T01:41:31.362Z,1.93
2019-05-20T01:43:59.800Z,2.10
2019-05-20T01:46:31.294Z,2.83
2019-05-20T01:49:00.346Z,1.97
2019-05-20T01:51:29.645Z,2.07
2019-05-20T01:53:58.185Z,1.87
2019-05-20T01:56:26.750Z,1.73
2019-05-20T01:58:57.550Z,2.03
2019-05-20T02:01:26.132Z,1.80
2019-05-20T02:03:54.553Z,1.50
2019-05-20T02:06:23.138Z,1.70
2019-05-20T02:08:51.675Z,2.10
2019-05-20T02:11:20.150Z,2.10
2019-05-20T02:14:11.171Z,2.33
2019-05-20T02:16:39.826Z,2.23
2019-05-20T02:19:08.287Z,1.80
2019-05-20T02:21:37.178Z,2.13
2019-05-20T02:24:05.460Z,1.80
2019-05-20T02:26:34.281Z,2.20
2019-05-20T02:29:02.518Z,2.23
2019-05-20T02:31:32.258Z,2.30
2019-05-20T02:34:00.497Z,2.27
2019-05-20T02:36:29.344Z,2.03
2019-05-20T02:38:57.938Z,1.90
2019-05-20T02:41:26.962Z,2.23
2019-05-20T02:43:55.323Z,2.27
2019-05-20T02:46:24.030Z,2.40
2019-05-20T02:48:52.596Z,2.30
2019-05-20T02:51:31.099Z,2.10
2019-05-20T02:54:02.713Z,2.70
2019-05-20T02:56:31.396Z,1.90
2019-05-20T02:58:59.639Z,2.10
2019-05-20T03:01:28.142Z,2.27
2019-05-20T03:04:10.927Z,2.30
2019-05-20T03:06:27.550Z,2.20
2019-05-20T03:08:56.045Z,2.00
2019-05-20T03:11:24.468Z,2.10
2019-05-20T03:13:53.398Z,2.30
2019-05-20T03:16:21.698Z,2.10
2019-05-20T03:18:50.466Z,2.17
2019-05-20T03:21:18.950Z,1.80
2019-05-20T03:23:47.892Z,2.03
2019-05-20T03:26:16.530Z,1.87
2019-05-20T03:28:44.847Z,1.90
2019-05-20T03:31:13.260Z,2.20
2019-05-20T03:33:52.410Z,2.83
2019-05-20T03:36:20.797Z,3.77
2019-05-20T03:38:49.675Z,2.80
2019-05-20T03:41:18.358Z,2.73
2019-05-20T03:43:46.862Z,2.63
2019-05-20T03:46:15.494Z,3.93
2019-05-20T03:48:44.272Z,2.70
2019-05-20T03:51:12.872Z,3.23
2019-05-20T03:53:42.233Z,3.00
2019-05-20T03:56:11.110Z,2.93
2019-05-20T03:58:39.596Z,2.70
2019-05-20T04:01:09.493Z,3.07
2019-05-20T04:03:38.232Z,2.97
2019-05-20T04:06:06.859Z,3.60
2019-05-20T04:08:35.184Z,3.13
2019-05-20T04:11:03.497Z,3.23
2019-05-20T04:13:34.731Z,3.33
2019-05-20T04:16:02.160Z,3.43
2019-05-20T04:18:30.655Z,2.80
2019-05-20T04:20:59.487Z,2.80
2019-05-20T04:23:28.002Z,3.70
2019-05-20T04:25:56.711Z,3.10
2019-05-20T04:28:25.442Z,2.43
2019-05-20T04:30:55.598Z,2.60
2019-05-20T04:33:23.891Z,2.63
2019-05-20T04:35:52.190Z,2.70
2019-05-20T04:38:20.947Z,2.87
2019-05-20T04:40:49.340Z,2.20
2019-05-20T04:43:18.074Z,2.87
2019-05-20T04:45:47.120Z,2.30
2019-05-20T04:48:16.116Z,2.53
2019-05-20T04:50:45.741Z,2.77
2019-05-20T04:53:14.253Z,2.20
2019-05-20T04:55:42.909Z,2.72
2019-05-20T04:58:11.723Z,2.67
2019-05-20T05:00:57.062Z,3.13
2019-05-20T05:03:25.995Z,2.13
2019-05-20T05:05:54.800Z,2.00
2019-05-20T05:08:23.549Z,2.30
2019-05-20T05:10:52.285Z,2.30
2019-05-20T05:13:21.246Z,1.83
2019-05-20T05:15:49.633Z,1.90
2019-05-20T05:18:18.418Z,2.40
2019-05-20T05:20:46.926Z,2.70
2019-05-20T05:23:16.149Z,3.10
2019-05-20T05:25:45.250Z,2.47
2019-05-20T05:28:13.977Z,2.90
2019-05-20T05:30:42.901Z,2.93
2019-05-20T05:33:11.571Z,2.13
2019-05-20T05:35:52.336Z,2.10
2019-05-20T05:38:13.078Z,1.30
2019-05-20T05:40:41.381Z,1.57
2019-05-20T05:43:10.095Z,1.43
2019-05-20T05:45:39.111Z,3.27
2019-05-20T05:48:09.153Z,1.73
2019-05-20T05:50:37.989Z,1.77
2019-05-20T05:53:06.832Z,2.63
2019-05-20T05:55:35.441Z,2.20
2019-05-20T05:58:04.047Z,1.77
2019-05-20T06:00:32.750Z,2.60
2019-05-20T06:03:01.150Z,2.60
2019-05-20T06:05:31.729Z,1.90
2019-05-20T06:08:00.438Z,1.97
2019-05-20T06:10:29.020Z,1.77
2019-05-20T06:12:58.923Z,1.93
2019-05-20T06:15:27.410Z,1.73
2019-05-20T06:17:55.733Z,1.80
2019-05-20T06:20:24.154Z,2.30
2019-05-20T06:22:52.486Z,4.28
2019-05-20T06:25:21.134Z,1.67
2019-05-20T06:27:50.734Z,2.50
2019-05-20T06:30:19.733Z,1.97
2019-05-20T06:32:50.576Z,1.90
2019-05-20T06:35:19.013Z,3.30
2019-05-20T06:37:52.086Z,3.40
2019-05-20T06:40:20.976Z,2.87
2019-05-20T06:42:52.604Z,3.50
2019-05-20T06:45:21.134Z,3.00
2019-05-20T06:47:51.469Z,3.07
2019-05-20T06:50:19.986Z,3.73
2019-05-20T06:56:21.328Z,4.60
2019-05-20T06:58:53.920Z,3.23
2019-05-20T07:01:22.772Z,4.60
2019-05-20T07:03:51.037Z,3.97
2019-05-20T07:06:19.785Z,4.30
2019-05-20T07:08:48.375Z,5.13
2019-05-20T07:11:17.197Z,3.73
2019-05-20T07:13:45.394Z,5.10
2019-05-20T07:16:13.769Z,5.37
2019-05-20T07:18:42.218Z,6.27
2019-05-20T07:21:10.989Z,7.83
2019-05-20T07:23:39.710Z,3.93
2019-05-20T07:26:08.536Z,3.90
2019-05-20T07:28:37.531Z,4.47
2019-05-20T07:31:06.341Z,5.47
2019-05-20T07:33:35.225Z,5.83
2019-05-20T07:36:03.782Z,5.20
2019-05-20T07:38:32.582Z,5.03
2019-05-20T07:41:01.012Z,6.10
2019-05-20T07:43:29.501Z,5.13
2019-05-20T07:45:58.491Z,3.40
2019-05-20T07:48:27.438Z,4.40
2019-05-20T07:50:56.525Z,4.73
2019-05-20T07:53:25.245Z,6.00
2019-05-20T07:56:02.879Z,6.23
2019-05-20T07:58:36.314Z,5.57
2019-05-20T08:01:05.207Z,4.97
2019-05-20T08:03:33.859Z,4.57
2019-05-20T08:06:02.569Z,5.10
2019-05-20T08:08:31.250Z,4.90
2019-05-20T08:10:59.882Z,6.10
2019-05-20T08:13:28.550Z,6.23
2019-05-20T08:15:57.162Z,6.53
2019-05-20T08:18:25.832Z,7.27
2019-05-20T08:20:54.535Z,4.40
2019-05-20T08:23:23.527Z,4.23
2019-05-20T08:25:52.155Z,4.50
2019-05-20T08:28:21.467Z,5.37
2019-05-20T08:30:52.947Z,5.63
2019-05-20T08:33:21.963Z,5.50
2019-05-20T08:35:50.826Z,5.80
2019-05-20T08:38:20.380Z,7.77
2019-05-20T08:40:49.996Z,6.87
2019-05-20T08:43:19.498Z,7.63
2019-05-20T08:45:50.050Z,7.30
2019-05-20T08:48:19.414Z,4.80
2019-05-20T08:50:50.920Z,4.57
2019-05-20T08:53:20.641Z,4.17
2019-05-20T08:55:50.490Z,3.23
2019-05-20T08:58:21.904Z,3.73
2019-05-20T09:00:51.817Z,3.50
2019-05-20T09:03:21.002Z,3.40
2019-05-20T09:05:51.469Z,3.07
2019-05-20T09:08:20.778Z,2.87
2019-05-20T09:10:49.506Z,3.10
2019-05-20T09:13:18.847Z,1.90
2019-05-20T09:15:48.227Z,1.87
2019-05-20T09:18:17.847Z,1.80
2019-05-20T09:20:46.930Z,1.97
2019-05-20T09:23:16.112Z,1.63
2019-05-20T09:25:46.055Z,1.43
2019-05-20T09:28:16.306Z,1.30
2019-05-20T09:30:45.776Z,1.37
2019-05-20T09:33:15.521Z,2.07
2019-05-20T09:35:44.746Z,1.40
2019-05-20T09:38:20.329Z,1.40
2019-05-20T09:40:46.338Z,1.50
2019-05-20T09:43:15.522Z,1.70
2019-05-20T09:45:45.034Z,1.50
2019-05-20T09:48:14.562Z,1.53
2019-05-20T09:50:43.483Z,2.33
2019-05-20T09:53:14.997Z,2.00
2019-05-20T09:55:46.455Z,1.47
2019-05-20T09:58:15.525Z,2.10
2019-05-20T10:00:44.483Z,2.33
2019-05-20T10:03:13.171Z,1.70
2019-05-20T10:05:41.919Z,1.67
2019-05-20T10:08:11.045Z,1.80
2019-05-20T10:10:40.098Z,2.10
2019-05-20T10:13:09.342Z,1.80
2019-05-20T10:15:38.255Z,1.27
2019-05-20T10:18:07.346Z,1.90
2019-05-20T10:20:36.079Z,1.30
2019-05-20T10:23:05.333Z,1.87
2019-05-20T10:25:36.759Z,1.23
2019-05-20T10:28:05.867Z,1.83
2019-05-20T10:30:35.058Z,2.20
2019-05-20T10:33:09.501Z,2.02
2019-05-20T10:35:37.071Z,1.90
2019-05-20T10:38:06.334Z,1.80
2019-05-20T10:40:35.155Z,1.50
2019-05-20T10:43:03.597Z,1.83
2019-05-20T10:45:32.830Z,1.10
2019-05-20T10:48:01.046Z,2.87
2019-05-20T10:50:31.547Z,1.20
2019-05-20T10:53:00.892Z,1.57
2019-05-20T10:55:29.252Z,1.50
2019-05-20T10:57:57.995Z,1.50
2019-05-20T11:00:26.616Z,1.30
2019-05-20T11:02:55.051Z,1.73
2019-05-20T11:05:23.639Z,2.52
2019-05-20T11:07:53.036Z,1.55
2019-05-20T11:10:21.502Z,1.53
2019-05-20T11:12:50.059Z,1.70
2019-05-20T11:15:18.779Z,1.57
2019-05-20T11:17:48.410Z,1.10
2019-05-20T11:20:17.270Z,1.40
2019-05-20T11:22:45.720Z,1.13
2019-05-20T11:25:16.038Z,0.80
2019-05-20T11:27:44.807Z,1.30
2019-05-20T11:30:13.675Z,1.40
2019-05-20T11:32:42.380Z,1.73
2019-05-20T11:35:11.349Z,1.20
2019-05-20T11:37:40.098Z,1.20
2019-05-20T11:40:10.023Z,1.10
2019-05-20T11:42:39.240Z,1.13
2019-05-20T11:45:08.078Z,1.17
2019-05-20T11:47:37.779Z,1.10
2019-05-20T11:50:06.832Z,1.60
2019-05-20T11:52:35.576Z,1.27
2019-05-20T11:55:04.420Z,1.20
2019-05-20T11:57:35.925Z,1.20
2019-05-20T12:00:08.384Z,2.33
2019-05-20T12:02:37.316Z,1.20
2019-05-20T12:05:09.387Z,3.03
2019-05-20T12:07:39.380Z,1.33
2019-05-20T12:10:08.861Z,1.47
2019-05-20T12:12:39.006Z,2.00
2019-05-20T12:15:09.627Z,1.60
2019-05-20T12:17:38.761Z,1.23
2019-05-20T12:20:10.171Z,1.67
2019-05-20T12:22:39.134Z,1.70
2019-05-20T12:25:08.410Z,1.60
2019-05-20T12:27:37.219Z,1.60
2019-05-20T12:30:06.829Z,1.17
2019-05-20T12:32:35.330Z,1.40
2019-05-20T12:35:05.301Z,1.60
2019-05-20T12:37:36.869Z,1.63
2019-05-20T12:40:07.913Z,1.20
2019-05-20T12:42:36.884Z,1.27
2019-05-20T12:45:07.219Z,0.93
2019-05-20T12:47:36.046Z,1.10
2019-05-20T12:50:04.618Z,1.00
2019-05-20T12:52:33.560Z,1.00
2019-05-20T12:55:08.130Z,1.27
2019-05-20T12:57:32.665Z,1.17
2019-05-20T13:00:01.109Z,1.40
2019-05-20T13:02:31.605Z,1.40
2019-05-20T13:05:00.555Z,1.43
2019-05-20T13:07:28.900Z,1.30
2019-05-20T13:10:01.833Z,1.23
2019-05-20T13:12:28.170Z,1.20
2019-05-20T13:14:56.890Z,1.30
2019-05-20T13:17:25.770Z,1.30
2019-05-20T13:19:54.217Z,1.13
2019-05-20T13:22:23.143Z,1.27
2019-05-20T13:24:52.357Z,1.20
2019-05-20T13:27:20.981Z,1.03
2019-05-20T13:29:50.045Z,1.00
2019-05-20T13:32:19.191Z,1.50
2019-05-20T13:34:49.821Z,1.20
2019-05-20T13:37:19.338Z,1.40
2019-05-20T13:39:49.381Z,1.20
2019-05-20T13:42:18.256Z,1.23
2019-05-20T13:44:55.811Z,1.20
2019-05-20T13:47:24.691Z,1.13
2019-05-20T13:49:53.220Z,2.13
2019-05-20T13:52:22.205Z,1.50
2019-05-20T13:57:56.902Z,1.98
2019-05-20T14:00:25.926Z,1.80
2019-05-20T14:02:55.183Z,1.40
2019-05-20T14:05:23.905Z,1.93
2019-05-20T14:07:54.360Z,1.30
2019-05-20T14:10:23.096Z,1.00
2019-05-20T14:12:52.294Z,1.20
2019-05-20T14:15:21.047Z,1.17
2019-05-20T14:17:49.626Z,1.23
2019-05-20T14:20:18.500Z,1.37
2019-05-20T14:22:46.997Z,1.50
2019-05-20T14:25:15.668Z,1.57
2019-05-20T14:27:47.731Z,1.67
2019-05-20T14:30:16.534Z,1.90
2019-05-20T14:32:45.303Z,1.85
2019-05-20T14:35:14.214Z,1.53
2019-05-20T14:37:43.111Z,1.63
2019-05-20T14:40:12.153Z,1.27
2019-05-20T14:42:41.464Z,1.20
2019-05-20T14:48:33.302Z,1.10
2019-05-20T14:51:05.166Z,1.63
2019-05-20T14:53:35.064Z,1.30
2019-05-20T14:56:04.867Z,1.30
2019-05-20T14:58:35.520Z,1.20
2019-05-20T15:01:05.775Z,1.07
2019-05-20T15:03:37.089Z,0.90
2019-05-20T15:06:07.448Z,1.00
2019-05-20T15:08:36.263Z,0.90
2019-05-20T15:11:06.185Z,0.70
2019-05-20T15:13:34.648Z,0.80
2019-05-20T15:16:04.201Z,0.80
2019-05-20T15:18:34.579Z,1.00
2019-05-20T15:21:05.138Z,1.27
2019-05-20T15:23:34.974Z,2.60
2019-05-20T15:26:03.934Z,2.60
2019-05-20T15:28:32.761Z,1.67
2019-05-20T15:31:02.210Z,0.90
2019-05-20T15:33:30.748Z,1.37
2019-05-20T15:35:59.491Z,0.93
2019-05-20T15:38:29.833Z,1.40
2019-05-20T15:41:00.725Z,1.43
2019-05-20T15:43:29.717Z,1.77
2019-05-20T15:45:58.358Z,1.43
2019-05-20T15:48:27.088Z,1.37
2019-05-20T15:50:57.540Z,1.80
2019-05-20T15:53:25.926Z,1.70
2019-05-20T15:55:54.683Z,2.23
2019-05-20T15:58:23.988Z,2.20
2019-05-20T16:00:53.292Z,2.50
2019-05-20T16:03:21.871Z,2.93
2019-05-20T16:06:03.165Z,2.20
2019-05-20T16:08:25.170Z,2.60
2019-05-20T16:10:53.921Z,2.50
2019-05-20T16:13:22.705Z,1.70
2019-05-20T16:15:51.138Z,3.03
2019-05-20T16:18:20.048Z,2.40
2019-05-20T16:20:48.591Z,2.50
2019-05-20T16:23:20.366Z,2.00
2019-05-20T16:25:49.050Z,2.37
2019-05-20T16:28:17.885Z,1.80
2019-05-20T16:30:49.338Z,1.70
2019-05-20T16:33:18.127Z,1.30
2019-05-20T16:35:46.618Z,1.30
2019-05-20T16:38:15.406Z,1.30
2019-05-20T16:40:46.082Z,1.00
2019-05-20T16:43:15.018Z,1.90
2019-05-20T16:45:43.142Z,1.80
2019-05-20T16:48:12.082Z,1.90
2019-05-20T16:50:43.285Z,1.53
2019-05-20T16:53:11.965Z,2.10
2019-05-20T16:55:40.493Z,2.00
2019-05-20T16:58:09.892Z,2.00
2019-05-20T17:00:38.598Z,2.20
2019-05-20T17:03:07.169Z,2.00
2019-05-20T17:05:35.655Z,2.10
2019-05-20T17:08:03.986Z,1.03
2019-05-20T17:10:33.853Z,1.63
2019-05-20T17:13:03.307Z,1.53
2019-05-20T17:15:31.554Z,2.57
2019-05-20T17:18:04.235Z,1.50
2019-05-20T17:20:32.573Z,1.97
2019-05-20T17:23:01.386Z,2.20
2019-05-20T17:25:30.866Z,1.57
2019-05-20T17:28:01.927Z,1.17
2019-05-20T17:30:43.051Z,1.80
2019-05-20T17:33:00.671Z,1.40
2019-05-20T17:35:29.488Z,1.70
2019-05-20T17:37:58.318Z,1.43
2019-05-20T17:40:26.522Z,2.87
2019-05-20T17:42:55.346Z,1.90
2019-05-20T17:45:28.329Z,2.30
2019-05-20T17:47:57.501Z,1.90
2019-05-20T17:50:32.552Z,2.23
2019-05-20T17:53:01.282Z,1.73
2019-05-20T17:55:29.925Z,2.60
2019-05-20T17:58:01.520Z,1.70
2019-05-20T18:00:30.018Z,1.40
2019-05-20T18:02:59.698Z,2.53
2019-05-20T18:05:28.420Z,1.62
2019-05-20T18:07:57.207Z,1.90
2019-05-20T18:10:26.132Z,1.83
2019-05-20T18:12:54.770Z,1.77
2019-05-20T18:15:25.105Z,1.77
2019-05-20T18:17:53.785Z,2.60
2019-05-20T18:20:22.172Z,2.50
2019-05-20T18:22:50.772Z,3.57
2019-05-20T18:25:20.640Z,4.67
2019-05-20T18:27:49.677Z,4.27
2019-05-20T18:30:18.564Z,4.83
2019-05-20T18:32:47.282Z,5.07
2019-05-20T18:35:17.891Z,5.13
2019-05-20T18:37:46.944Z,4.70
2019-05-20T18:40:16.210Z,4.27
2019-05-20T18:42:46.395Z,5.27
2019-05-20T18:45:14.856Z,5.63
2019-05-20T18:47:46.048Z,5.97
2019-05-20T18:50:18.392Z,5.23
2019-05-20T18:52:47.653Z,4.60
2019-05-20T18:55:16.149Z,3.93
2019-05-20T18:57:44.670Z,3.53
2019-05-20T19:00:16.510Z,3.70
2019-05-20T19:02:45.363Z,4.00
2019-05-20T19:05:14.270Z,3.60
2019-05-20T19:07:43.781Z,4.17
2019-05-20T19:10:13.690Z,3.40
2019-05-20T19:12:42.230Z,2.60
2019-05-20T19:15:10.895Z,2.60
2019-05-20T19:17:39.680Z,4.00
2019-05-20T19:20:11.750Z,2.40
2019-05-20T19:22:40.755Z,2.30
2019-05-20T19:25:11.681Z,2.80
2019-05-20T19:27:40.534Z,3.10
2019-05-20T19:30:09.566Z,3.20
2019-05-20T19:32:38.005Z,3.00
2019-05-20T19:35:06.861Z,2.77
2019-05-20T19:37:38.375Z,2.70
2019-05-20T19:40:08.196Z,3.10
2019-05-20T19:42:39.510Z,2.20
2019-05-20T19:45:09.256Z,2.47
2019-05-20T19:47:40.932Z,2.37
2019-05-20T19:50:10.223Z,2.20
2019-05-20T19:52:39.245Z,2.50
2019-05-20T19:55:07.668Z,2.70
2019-05-20T19:57:35.998Z,2.07
2019-05-20T20:00:07.543Z,2.00
2019-05-20T20:02:39.341Z,2.10
2019-05-20T20:05:12.368Z,2.60
2019-05-20T20:07:41.216Z,3.90
2019-05-20T20:10:10.780Z,2.60
2019-05-20T20:12:41.961Z,2.27
2019-05-20T20:15:16.054Z,2.10
2019-05-20T20:17:44.910Z,2.10
2019-05-20T20:20:13.742Z,2.00
2019-05-20T20:22:42.261Z,2.27
2019-05-20T20:25:10.864Z,2.70
2019-05-20T20:27:39.650Z,2.73
2019-05-20T20:30:08.136Z,1.87
2019-05-20T20:32:39.069Z,2.27
2019-05-20T20:35:08.494Z,2.00
2019-05-20T20:37:37.035Z,1.50
2019-05-20T20:40:06.870Z,2.07
2019-05-20T20:42:35.543Z,1.87
2019-05-20T20:45:04.554Z,1.77
2019-05-20T20:47:41.216Z,1.70
2019-05-20T20:50:04.277Z,1.43
2019-05-20T20:52:34.909Z,1.67
2019-05-20T20:55:03.417Z,2.07
2019-05-20T20:57:33.058Z,2.10
2019-05-20T21:00:01.701Z,1.50
2019-05-20T21:02:32.782Z,2.17
2019-05-20T21:05:01.410Z,1.87
2019-05-20T21:07:30.042Z,1.77
2019-05-20T21:09:58.888Z,2.63
2019-05-20T21:12:27.785Z,2.23
2019-05-20T21:14:57.357Z,1.67
2019-05-20T21:17:26.071Z,1.20
2019-05-20T21:19:54.902Z,2.77
2019-05-20T21:22:23.437Z,1.63
2019-05-20T21:24:52.204Z,1.70
2019-05-20T21:27:24.191Z,1.40
2019-05-20T21:29:55.546Z,1.60
2019-05-20T21:32:24.245Z,1.60
2019-05-20T21:34:52.602Z,1.37
2019-05-20T21:37:22.504Z,1.83
2019-05-20T21:39:50.958Z,1.57
2019-05-20T21:42:19.993Z,2.53
2019-05-20T21:44:48.986Z,1.50
2019-05-20T21:47:17.632Z,1.57
2019-05-20T21:49:47.233Z,1.30
2019-05-20T21:52:16.012Z,1.60
2019-05-20T21:54:44.608Z,1.30
2019-05-20T21:57:13.305Z,1.20
2019-05-20T21:59:42.023Z,1.30
2019-05-20T22:02:10.793Z,2.40
2019-05-20T22:04:39.365Z,1.57
2019-05-20T22:07:09.523Z,1.57
2019-05-20T22:09:37.931Z,1.03
2019-05-20T22:12:07.354Z,1.33
2019-05-20T22:14:36.032Z,1.10
2019-05-20T22:17:04.818Z,1.47
2019-05-20T22:19:33.764Z,1.53
2019-05-20T22:22:11.938Z,1.37
2019-05-20T22:24:40.713Z,1.57
2019-05-20T22:27:09.074Z,1.03
2019-05-20T22:29:37.859Z,1.00
2019-05-20T22:32:06.682Z,1.13
2019-05-20T22:34:35.337Z,1.30
2019-05-20T22:37:05.448Z,1.27
2019-05-20T22:39:34.693Z,1.50
2019-05-20T22:42:05.098Z,1.13
2019-05-20T22:44:33.878Z,1.33
2019-05-20T22:47:02.274Z,1.10
2019-05-20T22:49:31.103Z,0.93
2019-05-20T22:51:59.267Z,1.10
2019-05-20T22:54:29.910Z,1.13
2019-05-20T22:56:58.992Z,1.43
2019-05-20T22:59:28.464Z,1.03
2019-05-20T23:01:57.252Z,0.83
2019-05-20T23:04:25.955Z,1.40
2019-05-20T23:06:54.855Z,1.67
2019-05-20T23:09:23.530Z,1.00
2019-05-20T23:11:52.348Z,1.47
2019-05-20T23:14:20.726Z,1.07
2019-05-20T23:16:49.209Z,1.23
2019-05-20T23:19:18.401Z,1.07
2019-05-20T23:21:47.255Z,1.17
2019-05-20T23:24:16.907Z,0.70
2019-05-20T23:26:45.275Z,1.10
